Main page
METAR-TAF:

METAR-TAF

Airports :

Baghdad International Airport

Baghdad, Iraq

latitude: 33-15-45N, longitude: 44-14-04E, elevation: 35 m

Current weather observation

The report was made 10 minutes ago, at 07:00 UTC
Wind 19 kt from the West/Northwest
Temperature 35°C
Humidity 25%
Pressure 1003 hPa
Visibility: 4000 m
Blowing dust

METAR: ORBI 150700Z 29019KT 4000 BLDU NSC 35/12 Q1003

Time: 10:10 (07:10 UTC)

Forecast

The report was made 3 hours and 10 minutes ago, at 04:00 UTC
Forecast valid from 15 at 06 UTC to 16 at 06 UTC
Wind 14 kt from the West/Northwest
Visibility: 8000 m

TAF: ORBI 150400Z 1506/1606 30014KT 8000 NSC

Weather observations and forecasts of more than 4000 airports (METAR and TAF reports).

The available stations are represented by yellow and red dots on the map.

Hover mouse over dot to see the name of the station.

Then click to see weather observations and forecasts.

To change the map : click on the green buttons with a black cross to zoom in, on the green button with a dash to zoom out, or on the green arrows for adjacent maps.


METAR-TAF: